DAILY LOG FOR 2014MAR19

METAR KCOW 190655Z 00000KT 10SM OVC070 M01/M02 A3001 RMK SLP190 T10071023 400871020 UNFL

METAR KCOW 190755Z 00000KT 9SM OVC015 M01/M02 A3001 RMK SLP191 T10061022 UNFL

METAR KCOW 190855Z 29001KT 1/2SM FZFG VV000 M02/M03 A3001 RMK SLP190 8//// T10161032 58002 UNFL

METAR KCOW 190955Z 26004KT 1/4SM FZFG VV000 M02/M03 A3000 RMK SLP187 T10161030 UNFL

METAR KCOW 191055Z 26001KT 1/4SM FZFG VV000 M02/M03 A3000 RMK SLP190 T10191033 UNFL

METAR KCOW 191155Z 00000KT 1/4SM FZFG VV000 M03/M04 A3001 RMK SLP192 70002 8//// T10271041 11004 21033 51002 UNFL

METAR KCOW 191255Z 32004KT 1/4SM FZFG VV000 M03/M05 A3003 RMK SLP201 T10331047 UNFL

METAR KCOW 191355Z 00000KT 1/8SM FZFG VV000 M04/M05 A3005 RMK SLP209 T10401054 UNFL

METAR KCOW 191455Z 32001KT 1/4SM FZFG VV000 M03/M05 A3005 RMK SLP207 8//// T10321045 50014 UNFL

METAR KCOW 191555Z 32001KT 5SM BR BKN002 M02/M03 A3005 RMK SLP208 T10211032 UNFL

METAR KCOW 191659Z 00000KT 30SM SKC 01/M01 A3003 RMK SLP200 T00041006 UNFL

METAR KCOW 191750Z 19003G09KT 30SM SKC 04/M01 A3000 RMK SLP183 T00361007 10036 21041 58024 UNFL

METAR KCOW 191851Z 24007KT 30SM FEW250 07/M01 A2996 RMK SLP166 T00671012 UNFL

METAR KCOW 191955Z 25009KT 30SM SCT250 09/M05 A2992 RMK SLP147 T00871045 UNFL

METAR KCOW 192055Z 25010KT 30SM FEW060 BKN250 09/M04 A2990 RMK SLP136 8/502 T00901041 56046 UNFL

METAR KCOW 192151Z 22009G17KT 30SM FEW060 BKN250 10/M06 A2988 RMK SLP128 T01021057 UNFL

METAR KCOW 192251Z 22004G13KT 30SM SCT070 BKN150 OVC200 10/M06 A2987 RMK SLP125 ACSL DSNT S T00991060 UNFL

METAR KCOW 192356Z 20006KT 30SM BKN070 OVC150 09/M05 A2987 RMK SLP126 8/04/ T00881046 10104 20036 55010 UNFL

METAR KCOW 200056Z 25005G12KT 30SM OVC090 08/M05 A2988 RMK SLP129 T00801051 UNFL

METAR KCOW 200152Z 29003G12KT 30SM BKN120 07/M05 A2988 RMK SLP131 T00671046 UNFL

METAR KCOW 200259Z 00000KT 15SM SCT120 BKN150 06/M04 A2987 RMK SLP129 8/070 T00551041 50003 UNFL

METAR KCOW 200351Z 00000KT 15SM FEW120 SCT150 04/M04 A2987 RMK SLP131 T00401037 UNFL

METAR KCOW 200452Z 00000KT 15SM FEW150 03/M04 A2985 RMK SLP128 T00251036 UNFL

METAR KCOW 200559Z 28001KT 10SM FEW080 00/M04 A2984 RMK SLP127 8/070 T00001043 10089 21001 58001 UNFL